Fairfield Glade, Tennessee
Current Conditions -  °F | °C
As of 3:53 PM on Thursday 18 Dec 2014 (Local Time) from KCSV Reporting Station
Overcast Overcast  
Wind Chill: 34°   Ceiling: 4400
Heat Index: 39°   Visibility: 10mi
Dew Point: 28°   Wind: 7mph
Humidity: 65%   Direction: 340°NNW
Pressure: 30.15"   Gusts: NA
Location:  36.0033°N, 84.8901°W
Report Text: KCSV 182153Z AUTO 34006KT 10SM OVC044 04/M02 A3015 RMK AO2 SLP218 T00391022
Loading
Personal Weather Stations






























Interactive Weather Map New forecast layout! Learn more

10-Day Weather Forecast

Advertisements
Track Severe Weather on mobile